Big Level, Mississippi
Current Conditions -  °F | °C
As of 6:53 AM on Tuesday 21 Oct 2014 (Local Time) from KGPT Reporting Station
Clear Clear  
Wind Chill: 54°   Ceiling: Unl
Heat Index: 54°   Visibility: 8mi
Dew Point: 50°   Wind: 3mph
Humidity: 86%   Direction: 10°N
Pressure: 30.03"   Gusts: NA
Location:  30.7239°N, 89.1669°W
Report Text: KGPT 211153Z 01003KT 8SM CLR 12/10 A3003 RMK AO2 SLP168 T01220100 10133 20111 51010
Loading
Personal Weather Stations






























Interactive Weather Map
Tropical Storm Tracking
New forecast layout! Learn more

10-Day Weather Forecast

Advertisements
Track Severe Weather on mobile